Orbital elements of COSMOS 414
| Launched | 6 May 1971 |
| Flight ended | – |
| Launch site | Plesetsk Missile and Space Complex, Russia |
| Owner | Commonwealth of Independent States (former USSR) |
| NORAD ID | 5213 |
| Date fetched |
Epoch osculation |
Inc. [°] |
Ecc. | RA asc node [hr] |
Arg Peri. [°] |
Mean anom [°] |
Mean motion [rev/day] |
Abs. mag |
| Date fetched |
Epoch osculation |
Inc. [°] |
Ecc. | RA asc node [hr] |
Arg Peri. [°] |
Mean anom [°] |
Mean motion [rev/day] |
Abs. mag |
| 2026 May 03 17:57 | 2026 Apr 30 14:41:14 | 74.0159 | 0.00425 | 21.8728 | 152.1178 | 264.8215 | 12.51148 | – |
| 2026 May 02 17:57 | 2026 Apr 30 14:41:14 | 74.0159 | 0.00425 | 21.8728 | 152.1178 | 264.8215 | 12.51148 | – |
| 2026 May 01 17:56 | 2026 Apr 30 14:41:14 | 74.0159 | 0.00425 | 21.8728 | 152.1178 | 264.8215 | 12.51148 | – |
| 2026 Apr 30 17:56 | 2026 Apr 30 14:41:14 | 74.0159 | 0.00425 | 21.8728 | 152.1178 | 264.8215 | 12.51148 | – |
| 2026 Apr 29 17:57 | 2026 Apr 24 09:38:07 | 74.0168 | 0.00426 | 22.4247 | 161.5275 | 264.8215 | 12.51148 | – |
| 2026 Apr 28 17:56 | 2026 Apr 24 09:38:07 | 74.0168 | 0.00426 | 22.4247 | 161.5275 | 264.8215 | 12.51148 | – |
| 2026 Apr 27 17:58 | 2026 Apr 24 09:38:07 | 74.0168 | 0.00426 | 22.4247 | 161.5275 | 264.8215 | 12.51148 | – |
| 2026 Apr 26 17:58 | 2026 Apr 24 09:38:07 | 74.0168 | 0.00426 | 22.4247 | 161.5275 | 264.8215 | 12.51148 | – |
| 2026 Apr 25 17:58 | 2026 Apr 24 09:38:07 | 74.0168 | 0.00426 | 22.4247 | 161.5275 | 264.8215 | 12.51148 | – |
| 2026 Apr 24 17:59 | 2026 Apr 24 09:38:07 | 74.0168 | 0.00426 | 22.4247 | 161.5275 | 264.8215 | 12.51148 | – |
| 2026 Apr 23 17:57 | 2026 Apr 19 10:39:50 | 74.0176 | 0.00427 | 22.8652 | 169.0386 | 264.8215 | 12.51148 | – |
| 2026 Apr 22 17:57 | 2026 Apr 19 10:39:50 | 74.0176 | 0.00427 | 22.8652 | 169.0386 | 264.8215 | 12.51148 | – |
| 2026 Apr 21 17:57 | 2026 Apr 19 10:39:50 | 74.0176 | 0.00427 | 22.8652 | 169.0386 | 264.8215 | 12.51148 | – |
| 2026 Apr 20 17:57 | 2026 Apr 19 10:39:50 | 74.0176 | 0.00427 | 22.8652 | 169.0386 | 264.8215 | 12.51148 | – |
| 2026 Apr 19 17:58 | 2026 Apr 19 10:39:50 | 74.0176 | 0.00427 | 22.8652 | 169.0386 | 264.8215 | 12.51148 | – |
| 2026 Apr 18 17:56 | 2026 Apr 13 02:31:45 | 74.0187 | 0.00428 | 23.4285 | 178.6252 | 264.8215 | 12.51148 | – |
| 2026 Apr 16 17:57 | 2026 Apr 13 02:31:45 | 74.0187 | 0.00428 | 23.4285 | 178.6252 | 264.8215 | 12.51148 | – |
| 2026 Apr 14 17:57 | 2026 Apr 13 02:31:45 | 74.0187 | 0.00428 | 23.4285 | 178.6252 | 264.8215 | 12.51148 | – |
| 2026 Apr 13 17:57 | 2026 Apr 13 02:31:45 | 74.0187 | 0.00428 | 23.4285 | 178.6252 | 264.8215 | 12.51148 | – |
| 2026 Apr 12 17:57 | 2026 Apr 08 03:59:32 | 74.0192 | 0.00429 | 23.8673 | 186.0828 | 264.8215 | 12.51148 | – |
| 2026 Apr 11 17:57 | 2026 Apr 08 03:59:32 | 74.0192 | 0.00429 | 23.8673 | 186.0828 | 264.8215 | 12.51148 | – |
| 2026 Apr 10 17:58 | 2026 Apr 08 03:59:32 | 74.0192 | 0.00429 | 23.8673 | 186.0828 | 264.8215 | 12.51148 | – |
| 2026 Apr 09 18:01 | 2026 Apr 08 03:59:32 | 74.0192 | 0.00429 | 23.8673 | 186.0828 | 264.8215 | 12.51148 | – |
| 2026 Apr 08 17:57 | 2026 Apr 08 03:59:32 | 74.0192 | 0.00429 | 23.8673 | 186.0828 | 264.8215 | 12.51148 | – |
| 2026 Apr 07 17:57 | 2026 Apr 02 05:48:50 | 74.0196 | 0.00430 | 0.3936 | 195.0243 | 264.8215 | 12.51148 | – |
| 2026 Apr 06 17:57 | 2026 Apr 02 05:48:50 | 74.0196 | 0.00430 | 0.3936 | 195.0243 | 264.8215 | 12.51148 | – |